TX42 weather

Fair Weather Field
Monaville, Texas, United States

Public forecast

Using degrees Fahrenheit for public forecast. Weather courtesy of forecast.io.

Closest aviation weather report (METAR) to Fair Weather Field

Closest report is Houston Executive Airport, 10.7 nm (19.9 km) SE. Retrieved 2019/12/07 13:35 UTC (25 minutes ago):

KTME 071335Z AUTO 35004KT 10SM CLR 08/07 A3030 RMK AO2

Closest aviation forecast (TAF) to Fair Weather Field

Forecast is more than 12 hours old.

Closest forecast is David Wayne Hooks Memorial Airport, 26.4 nm (48.9 km) ENE. Retrieved 2017/02/07 12:51 UTC (3 years ago):

TAF KDWH 071148Z 0712/0812 20009G15KT P6SM SCT022 OVC030 TEMPO 0712/0715 BKN018 FM071500 23010KT P6SM BKN015 FM071900 25010KT P6SM SCT025 FM080100 22005KT P6SM SCT250 TEMPO 0807/0809 3SM BR BKN013 FM080900 VRB03KT 2SM BR OVC008